Terminal Aerodrome Forecast
Issued by NWS Shreveport, LA

Home | Current Version | Previous Version | Text Only | Print | Product List | Glossary On
Versions: 1 2 3 4 5 6 7 8 9 10 11 12 13 14 15 16 17 18 19
615
FTUS44 KSHV 180520
TAFSHV
TAF
KSHV 180520Z 1806/1906 00000KT P6SM SKC
     FM181500 16004KT P6SM FEW300
     FM182000 19005KT P6SM SCT300
     FM190000 17003KT P6SM SCT300=

USA.gov is the U.S. government's official web portal to all federal, state and local government web resources and services.